createdAt,value
2022-10-03T00:01:40.196Z,24.70
2022-10-03T00:04:23.525Z,25.80
2022-10-03T00:07:05.465Z,25.93
2022-10-03T00:10:07.624Z,25.10
2022-10-03T00:13:04.869Z,27.63
2022-10-03T00:15:45.762Z,24.90
2022-10-03T00:18:36.932Z,24.90
2022-10-03T00:21:21.021Z,25.03
2022-10-03T00:24:01.216Z,23.60
2022-10-03T00:26:47.243Z,24.47
2022-10-03T00:43:11.991Z,19.27
2022-10-03T00:46:22.163Z,17.50
2022-10-03T00:49:39.974Z,16.17
2022-10-03T00:52:27.364Z,16.43
2022-10-03T00:55:15.502Z,16.10
2022-10-03T00:58:09.349Z,16.47
2022-10-03T01:00:44.360Z,14.70
2022-10-03T01:03:44.671Z,14.67
2022-10-03T01:06:27.849Z,15.97
2022-10-03T01:09:25.205Z,14.87
2022-10-03T01:12:28.009Z,14.97
2022-10-03T01:15:19.863Z,13.93
2022-10-03T01:18:10.146Z,15.77
2022-10-03T01:20:51.192Z,17.33
2022-10-03T01:23:49.209Z,15.87
2022-10-03T01:26:42.637Z,13.97
2022-10-03T01:29:34.978Z,16.63
2022-10-03T01:32:11.978Z,16.60
2022-10-03T01:34:51.656Z,14.77
2022-10-03T01:37:31.076Z,13.73
2022-10-03T01:40:11.514Z,16.30
2022-10-03T01:42:48.886Z,14.50
2022-10-03T01:45:32.826Z,15.50
2022-10-03T01:48:09.853Z,16.20
2022-10-03T01:50:53.347Z,14.37
2022-10-03T01:53:34.525Z,14.50
2022-10-03T01:56:11.970Z,14.67
2022-10-03T01:58:52.668Z,16.37
2022-10-03T02:01:32.406Z,17.23
2022-10-03T02:04:09.871Z,15.13
2022-10-03T02:06:53.536Z,16.63
2022-10-03T02:09:33.200Z,15.10
2022-10-03T02:12:12.160Z,13.50
2022-10-03T02:14:54.767Z,15.50
2022-10-03T02:17:35.458Z,15.33
2022-10-03T02:20:15.982Z,14.93
2022-10-03T02:22:49.883Z,14.10
2022-10-03T02:25:28.342Z,20.83
2022-10-03T02:28:31.234Z,14.30
2022-10-03T02:31:38.772Z,17.57
2022-10-03T02:34:44.724Z,16.60
2022-10-03T02:38:00.348Z,18.93
2022-10-03T02:41:12.479Z,15.87
2022-10-03T02:44:20.973Z,19.93
2022-10-03T02:47:35.013Z,15.00
2022-10-03T02:50:43.328Z,14.93
2022-10-03T02:53:59.061Z,17.30
2022-10-03T02:57:07.593Z,21.37
2022-10-03T03:00:07.803Z,14.10
2022-10-03T03:03:14.099Z,15.33
2022-10-03T03:06:21.574Z,17.67
2022-10-03T03:09:32.889Z,18.10
2022-10-03T03:12:31.026Z,17.00
2022-10-03T03:15:57.638Z,16.07
2022-10-03T03:18:37.324Z,17.67
2022-10-03T03:21:23.948Z,16.47
2022-10-03T03:24:29.926Z,16.67
2022-10-03T03:27:17.181Z,16.03
2022-10-03T03:29:56.733Z,15.57
2022-10-03T03:32:42.813Z,17.13
2022-10-03T03:35:24.807Z,20.17
2022-10-03T03:38:05.834Z,16.00
2022-10-03T03:40:46.497Z,15.73
2022-10-03T03:43:45.300Z,16.17
2022-10-03T03:46:30.813Z,16.80
2022-10-03T03:49:18.676Z,15.80
2022-10-03T03:52:02.587Z,15.17
2022-10-03T03:55:06.559Z,15.03
2022-10-03T03:58:01.558Z,16.57
2022-10-03T04:00:50.851Z,14.97
2022-10-03T04:03:45.683Z,16.70
2022-10-03T04:06:43.522Z,15.03
2022-10-03T04:09:35.490Z,16.63
2022-10-03T04:12:21.542Z,16.30
2022-10-03T04:15:28.869Z,16.13
2022-10-03T04:18:33.044Z,15.50
2022-10-03T04:21:19.257Z,19.30
2022-10-03T04:24:10.191Z,16.60
2022-10-03T04:26:53.207Z,16.13
2022-10-03T04:29:51.284Z,16.00
2022-10-03T04:32:58.207Z,14.93
2022-10-03T04:35:56.285Z,16.20
2022-10-03T04:38:44.142Z,16.53
2022-10-03T04:41:25.362Z,15.83
2022-10-03T04:44:10.184Z,16.63
2022-10-03T04:46:48.747Z,17.63
2022-10-03T04:49:27.650Z,16.00
2022-10-03T04:52:03.768Z,16.43
2022-10-03T04:54:49.741Z,16.70
2022-10-03T04:57:38.181Z,17.07
2022-10-03T05:00:26.391Z,16.30
2022-10-03T05:03:07.553Z,19.67
2022-10-03T05:05:51.025Z,16.77
2022-10-03T05:08:31.953Z,17.47
2022-10-03T05:11:14.377Z,16.93
2022-10-03T05:14:04.249Z,16.80
2022-10-03T05:16:52.355Z,18.50
2022-10-03T05:19:47.358Z,17.37
2022-10-03T05:22:45.433Z,19.17
2022-10-03T05:25:24.614Z,16.97
2022-10-03T05:28:04.542Z,18.27
2022-10-03T05:30:46.430Z,19.40
2022-10-03T05:33:28.366Z,20.73
2022-10-03T05:36:13.085Z,18.13
2022-10-03T05:39:37.412Z,20.40
2022-10-03T05:42:26.410Z,18.73
2022-10-03T05:45:06.485Z,19.67
2022-10-03T05:47:51.763Z,22.80
2022-10-03T05:50:52.453Z,20.43
2022-10-03T05:53:51.089Z,21.57
2022-10-03T05:56:32.705Z,17.90
2022-10-03T05:59:38.770Z,20.80
2022-10-03T06:02:46.431Z,17.27
2022-10-03T06:05:44.981Z,18.30
2022-10-03T06:08:44.838Z,21.20
2022-10-03T06:11:35.688Z,17.57
2022-10-03T06:14:38.369Z,19.10
2022-10-03T06:17:44.234Z,17.23
2022-10-03T06:20:49.723Z,18.23
2022-10-03T06:23:58.977Z,20.13
2022-10-03T06:26:49.473Z,18.50
2022-10-03T06:29:54.418Z,20.13
2022-10-03T06:32:54.956Z,19.20
2022-10-03T06:36:04.266Z,17.40
2022-10-03T06:39:13.022Z,20.87
2022-10-03T06:42:21.956Z,17.47
2022-10-03T06:45:30.848Z,18.80
2022-10-03T06:48:19.554Z,19.20
2022-10-03T06:51:00.884Z,19.73
2022-10-03T06:53:44.744Z,20.23
2022-10-03T06:56:49.626Z,21.37
2022-10-03T06:59:53.427Z,21.37
2022-10-03T07:02:58.633Z,19.27
2022-10-03T07:05:59.088Z,19.83
2022-10-03T07:09:05.397Z,20.57
2022-10-03T07:12:13.466Z,20.60
2022-10-03T07:15:10.448Z,19.03
2022-10-03T07:18:13.528Z,18.37
2022-10-03T07:21:32.571Z,21.23
2022-10-03T07:24:30.562Z,16.23
2022-10-03T07:27:23.909Z,17.07
2022-10-03T07:30:23.400Z,16.77
2022-10-03T07:33:28.832Z,17.50
2022-10-03T07:36:54.817Z,17.97
2022-10-03T07:39:47.994Z,17.90
2022-10-03T07:43:03.046Z,17.60
2022-10-03T07:46:05.273Z,18.33
2022-10-03T07:48:57.559Z,18.17
2022-10-03T07:51:39.070Z,18.53
2022-10-03T07:54:31.298Z,16.70
2022-10-03T07:57:33.010Z,19.67
2022-10-03T08:00:20.772Z,17.03
2022-10-03T08:03:29.509Z,18.53
2022-10-03T08:06:19.765Z,18.23
2022-10-03T08:09:25.892Z,17.97
2022-10-03T08:12:30.578Z,18.63
2022-10-03T08:15:08.885Z,19.43
2022-10-03T08:18:30.025Z,19.67
2022-10-03T08:21:04.122Z,22.07
2022-10-03T08:24:10.586Z,21.17
2022-10-03T08:27:02.810Z,20.07
2022-10-03T08:29:59.167Z,20.03
2022-10-03T08:33:00.420Z,21.83
2022-10-03T08:35:56.223Z,21.83
2022-10-03T08:39:01.841Z,23.77
2022-10-03T08:41:58.828Z,23.80
2022-10-03T08:45:01.913Z,23.03
2022-10-03T08:48:10.101Z,25.50
2022-10-03T08:51:13.215Z,27.30
2022-10-03T08:54:10.542Z,25.40
2022-10-03T08:57:27.475Z,25.87
2022-10-03T09:00:14.132Z,28.23
2022-10-03T09:03:36.622Z,26.60
2022-10-03T09:10:17.613Z,32.03
2022-10-03T09:13:15.893Z,30.83
2022-10-03T09:16:28.398Z,33.47
2022-10-03T09:19:32.198Z,35.23
2022-10-03T09:22:18.615Z,34.33
2022-10-03T09:25:24.864Z,37.10
2022-10-03T09:28:40.118Z,32.90
2022-10-03T09:31:33.776Z,34.67
2022-10-03T09:34:29.450Z,33.63
2022-10-03T09:37:47.275Z,32.40
2022-10-03T09:40:37.381Z,36.47
2022-10-03T09:43:41.182Z,32.90
2022-10-03T09:47:11.164Z,35.17
2022-10-03T09:50:39.294Z,34.80
2022-10-03T09:53:49.148Z,35.57
2022-10-03T09:56:50.340Z,33.97
2022-10-03T09:59:35.291Z,34.73
2022-10-03T10:02:25.566Z,33.43
2022-10-03T10:05:12.326Z,33.13
2022-10-03T10:08:10.817Z,37.47
2022-10-03T10:10:57.547Z,33.40
2022-10-03T10:14:14.366Z,33.70
2022-10-03T10:17:13.993Z,35.90
2022-10-03T10:20:02.800Z,33.37
2022-10-03T10:23:03.750Z,34.73
2022-10-03T10:25:56.884Z,34.03
2022-10-03T10:29:10.361Z,34.20
2022-10-03T10:32:22.379Z,33.50
2022-10-03T10:35:38.960Z,33.10
2022-10-03T10:38:28.213Z,35.40
2022-10-03T10:41:43.377Z,36.70
2022-10-03T10:44:57.132Z,34.63
2022-10-03T10:48:00.225Z,36.93
2022-10-03T10:51:27.103Z,33.17
2022-10-03T10:54:50.148Z,35.37
2022-10-03T10:57:41.495Z,32.60
2022-10-03T11:00:42.873Z,33.50
2022-10-03T11:03:46.875Z,32.13
2022-10-03T11:06:56.210Z,36.30
2022-10-03T11:09:56.264Z,34.23
2022-10-03T11:13:05.543Z,33.57
2022-10-03T11:16:11.242Z,34.13
2022-10-03T11:19:33.497Z,33.70
2022-10-03T11:22:52.156Z,33.83
2022-10-03T11:26:00.799Z,37.73
2022-10-03T11:29:09.771Z,32.77
2022-10-03T11:32:13.789Z,34.67
2022-10-03T11:35:43.046Z,33.27
2022-10-03T11:38:23.757Z,32.47
2022-10-03T11:41:04.509Z,32.60
2022-10-03T11:44:06.937Z,34.20
2022-10-03T11:47:02.014Z,32.40
2022-10-03T11:49:56.818Z,34.53
2022-10-03T11:52:38.569Z,34.27
2022-10-03T11:55:29.901Z,35.30
2022-10-03T11:58:13.505Z,34.40
2022-10-03T12:00:48.665Z,38.37
2022-10-03T12:03:27.594Z,35.10
2022-10-03T12:06:14.940Z,33.07
2022-10-03T12:09:00.702Z,33.33
2022-10-03T12:11:41.910Z,31.37
2022-10-03T12:14:29.938Z,32.53
2022-10-03T12:17:09.271Z,31.53
2022-10-03T12:19:50.244Z,31.87
2022-10-03T12:22:39.508Z,31.73
2022-10-03T12:25:26.253Z,31.27
2022-10-03T12:28:16.204Z,32.60
2022-10-03T12:30:53.223Z,33.63
2022-10-03T12:33:48.966Z,31.93
2022-10-03T12:36:25.627Z,33.07
2022-10-03T12:39:20.031Z,34.93
2022-10-03T12:42:06.112Z,30.63
2022-10-03T12:44:48.907Z,30.70
2022-10-03T12:47:54.938Z,34.93
2022-10-03T12:50:40.805Z,31.87
2022-10-03T12:53:39.851Z,31.50
2022-10-03T12:56:19.271Z,31.47
2022-10-03T12:58:57.194Z,30.27
2022-10-03T13:01:42.193Z,31.77
2022-10-03T13:04:24.807Z,32.07
2022-10-03T13:07:20.909Z,31.37
2022-10-03T13:10:12.205Z,30.97
2022-10-03T13:12:54.581Z,31.63
2022-10-03T13:15:49.684Z,31.57
2022-10-03T13:18:36.282Z,33.67
2022-10-03T13:21:40.734Z,30.67
2022-10-03T13:24:13.661Z,31.90
2022-10-03T13:26:56.273Z,30.60
2022-10-03T13:29:31.585Z,30.67
2022-10-03T13:32:13.210Z,29.67
2022-10-03T13:35:26.426Z,30.40
2022-10-03T13:38:15.993Z,31.87
2022-10-03T13:40:54.833Z,33.43
2022-10-03T13:43:39.933Z,32.13
2022-10-03T13:46:17.586Z,32.23
2022-10-03T13:49:00.993Z,30.63
2022-10-03T13:51:46.654Z,36.53
2022-10-03T13:54:23.881Z,32.27
2022-10-03T13:56:58.911Z,34.33
2022-10-03T13:59:44.434Z,34.87
2022-10-03T14:02:34.182Z,32.83
2022-10-03T14:05:52.667Z,32.13
2022-10-03T14:08:42.984Z,31.73
2022-10-03T14:11:40.538Z,33.07
2022-10-03T14:14:36.964Z,36.77
2022-10-03T14:17:15.220Z,32.43
2022-10-03T14:20:04.009Z,33.33
2022-10-03T14:22:49.610Z,31.20
2022-10-03T14:25:27.302Z,31.23
2022-10-03T14:28:01.217Z,31.43
2022-10-03T14:30:45.382Z,31.67
2022-10-03T14:33:33.680Z,33.07
2022-10-03T14:36:18.239Z,30.00
2022-10-03T14:39:05.037Z,31.70
2022-10-03T14:41:53.125Z,29.77
2022-10-03T14:44:27.330Z,33.73
2022-10-03T14:47:02.573Z,30.17
2022-10-03T14:52:36.588Z,30.33
2022-10-03T14:55:15.528Z,32.70
2022-10-03T14:58:09.707Z,32.17
2022-10-03T15:00:46.794Z,28.77
2022-10-03T15:03:27.958Z,34.60
2022-10-03T15:06:04.528Z,32.00
2022-10-03T15:08:41.642Z,28.20
2022-10-03T15:11:16.809Z,28.70
2022-10-03T15:13:54.420Z,28.30
2022-10-03T15:16:26.457Z,28.50
2022-10-03T15:19:06.348Z,28.63
2022-10-03T15:21:42.411Z,31.77
2022-10-03T15:24:24.907Z,31.53
2022-10-03T15:27:02.357Z,28.27
2022-10-03T15:29:37.937Z,27.57
2022-10-03T15:32:21.673Z,31.10
2022-10-03T15:34:56.189Z,30.67
2022-10-03T15:37:34.720Z,28.93
2022-10-03T15:40:13.690Z,30.73
2022-10-03T15:42:56.054Z,28.37
2022-10-03T15:45:36.851Z,28.63
2022-10-03T15:48:14.622Z,29.87
2022-10-03T15:50:48.081Z,32.43
2022-10-03T15:53:36.145Z,30.63
2022-10-03T15:56:14.451Z,32.17
2022-10-03T15:58:51.422Z,32.20
2022-10-03T16:01:28.429Z,32.10
2022-10-03T16:04:03.804Z,32.80
2022-10-03T16:06:48.530Z,35.07
2022-10-03T16:09:29.906Z,33.83
2022-10-03T16:12:16.906Z,35.17
2022-10-03T16:14:52.427Z,34.47
2022-10-03T16:17:36.194Z,40.37
2022-10-03T16:20:17.288Z,39.87
2022-10-03T16:22:51.479Z,33.30
2022-10-03T16:25:25.726Z,36.43
2022-10-03T16:28:01.948Z,34.80
2022-10-03T16:30:40.330Z,34.30
2022-10-03T16:33:19.873Z,34.30
2022-10-03T16:35:53.727Z,34.20
2022-10-03T16:38:27.265Z,32.27
2022-10-03T16:41:01.131Z,36.93
2022-10-03T16:43:35.642Z,32.57
2022-10-03T16:46:16.018Z,32.57
2022-10-03T16:49:13.651Z,32.67
2022-10-03T16:51:46.649Z,32.50
2022-10-03T16:54:21.398Z,33.37
2022-10-03T16:57:03.682Z,32.90
2022-10-03T16:59:36.615Z,30.33
2022-10-03T17:02:10.265Z,33.70
2022-10-03T17:04:46.439Z,31.93
2022-10-03T17:07:24.723Z,32.93
2022-10-03T17:10:00.185Z,30.70
2022-10-03T17:12:35.983Z,27.57
2022-10-03T17:15:11.107Z,26.43
2022-10-03T17:17:54.664Z,25.80
2022-10-03T17:20:42.552Z,26.07
2022-10-03T17:23:19.743Z,27.10
2022-10-03T17:26:00.024Z,26.77
2022-10-03T17:28:41.641Z,25.77
2022-10-03T17:31:35.775Z,29.23
2022-10-03T17:34:15.465Z,24.37
2022-10-03T17:37:16.977Z,25.23
2022-10-03T17:39:58.313Z,23.23
2022-10-03T17:42:42.774Z,23.67
2022-10-03T17:45:33.549Z,23.73
2022-10-03T17:48:12.891Z,22.80
2022-10-03T17:50:57.627Z,22.00
2022-10-03T17:53:32.786Z,23.73
2022-10-03T17:56:10.360Z,21.37
2022-10-03T17:58:44.257Z,25.80
2022-10-03T18:01:18.133Z,23.53
2022-10-03T18:03:52.263Z,22.27
2022-10-03T18:06:42.432Z,23.33
2022-10-03T18:09:27.850Z,21.23
2022-10-03T18:12:17.298Z,22.20
2022-10-03T18:15:11.747Z,22.00
2022-10-03T18:17:54.038Z,22.27
2022-10-03T18:20:42.922Z,24.53
2022-10-03T18:23:43.014Z,23.10
2022-10-03T18:26:22.264Z,21.77
2022-10-03T18:29:03.049Z,24.73
2022-10-03T18:31:36.251Z,24.63
2022-10-03T18:34:14.428Z,23.93
2022-10-03T18:36:49.837Z,26.47
2022-10-03T18:39:22.819Z,29.00
2022-10-03T18:41:59.442Z,26.10
2022-10-03T18:44:33.319Z,29.83
2022-10-03T18:47:20.449Z,25.20
2022-10-03T18:49:59.753Z,27.03
2022-10-03T18:52:40.356Z,29.80
2022-10-03T18:55:23.193Z,26.97
2022-10-03T18:58:04.383Z,28.87
2022-10-03T19:00:42.839Z,27.83
2022-10-03T19:03:19.023Z,27.27
2022-10-03T19:05:54.552Z,27.00
2022-10-03T19:08:30.879Z,27.53
2022-10-03T19:11:06.198Z,26.30
2022-10-03T19:13:53.792Z,25.77
2022-10-03T19:16:59.755Z,26.37
2022-10-03T19:19:42.370Z,23.93
2022-10-03T19:22:19.126Z,27.50
2022-10-03T19:24:58.801Z,25.27
2022-10-03T19:27:48.521Z,26.53
2022-10-03T19:30:26.684Z,26.00
2022-10-03T19:33:06.649Z,27.83
2022-10-03T19:35:43.039Z,25.33
2022-10-03T19:38:21.666Z,25.40
2022-10-03T19:41:00.504Z,25.10
2022-10-03T19:43:42.341Z,26.63
2022-10-03T19:46:37.515Z,25.73
2022-10-03T19:49:27.269Z,23.23
2022-10-03T19:52:27.818Z,22.60
2022-10-03T19:55:08.396Z,21.40
2022-10-03T19:57:49.602Z,21.67
2022-10-03T20:00:30.347Z,25.53
2022-10-03T20:03:18.514Z,23.63
2022-10-03T20:05:57.758Z,22.40
2022-10-03T20:08:33.894Z,21.70
2022-10-03T20:11:18.414Z,21.97
2022-10-03T20:13:51.509Z,25.67
2022-10-03T20:16:25.484Z,21.47
2022-10-03T20:19:01.687Z,26.23
2022-10-03T20:21:34.470Z,22.50
2022-10-03T20:24:13.190Z,25.00
2022-10-03T20:26:52.252Z,22.40
2022-10-03T20:29:29.430Z,22.53
2022-10-03T20:32:05.142Z,22.53
2022-10-03T20:34:41.333Z,24.37
2022-10-03T20:37:36.903Z,22.80
2022-10-03T20:40:20.139Z,24.37
2022-10-03T20:42:54.459Z,22.53
2022-10-03T20:45:28.822Z,23.63
2022-10-03T20:48:05.495Z,27.03
2022-10-03T20:50:42.112Z,22.80
2022-10-03T20:53:21.698Z,23.33
2022-10-03T20:55:55.856Z,24.57
2022-10-03T20:58:32.834Z,24.73
2022-10-03T21:01:07.666Z,24.37
2022-10-03T21:03:46.130Z,25.87
2022-10-03T21:06:23.180Z,24.17
2022-10-03T21:08:56.660Z,24.00
2022-10-03T21:11:31.225Z,24.73
2022-10-03T21:14:06.432Z,24.53
2022-10-03T21:16:39.368Z,23.23
2022-10-03T21:19:26.084Z,24.80
2022-10-03T21:22:02.112Z,25.40
2022-10-03T21:24:39.221Z,24.40
2022-10-03T21:27:14.689Z,24.63
2022-10-03T21:29:58.129Z,24.20
2022-10-03T21:32:46.657Z,25.23
2022-10-03T21:35:29.007Z,22.97
2022-10-03T21:38:13.315Z,22.60
2022-10-03T21:41:09.732Z,22.90
2022-10-03T21:43:52.293Z,22.70
2022-10-03T21:46:35.250Z,24.93
2022-10-03T21:49:45.683Z,25.07
2022-10-03T21:52:43.776Z,23.03
2022-10-03T21:55:52.300Z,22.43
2022-10-03T21:58:40.998Z,24.63
2022-10-03T22:01:18.986Z,22.83
2022-10-03T22:03:58.599Z,25.27
2022-10-03T22:06:35.502Z,26.17
2022-10-03T22:09:15.019Z,28.53
2022-10-03T22:11:52.900Z,25.53
2022-10-03T22:14:34.652Z,26.47
2022-10-03T22:17:16.765Z,27.20
2022-10-03T22:19:53.474Z,29.60
2022-10-03T22:22:39.512Z,29.90
2022-10-03T22:25:19.273Z,29.10
2022-10-03T22:28:06.655Z,27.67
2022-10-03T22:30:44.431Z,26.80
2022-10-03T22:33:21.741Z,31.00
2022-10-03T22:35:54.233Z,32.50
2022-10-03T22:38:28.932Z,26.33
2022-10-03T22:41:03.719Z,27.37
2022-10-03T22:43:38.762Z,24.83
2022-10-03T22:46:11.305Z,23.60
2022-10-03T22:48:45.171Z,26.60
2022-10-03T22:51:18.194Z,23.13
2022-10-03T22:53:53.284Z,22.73
2022-10-03T22:56:41.998Z,23.23
2022-10-03T22:59:19.555Z,21.60
2022-10-03T23:01:52.529Z,21.87
2022-10-03T23:04:37.727Z,21.77
2022-10-03T23:07:40.139Z,22.50
2022-10-03T23:10:35.288Z,21.10
2022-10-03T23:13:10.054Z,20.83
2022-10-03T23:15:45.245Z,21.10
2022-10-03T23:18:48.757Z,20.20
2022-10-03T23:21:19.816Z,20.33
2022-10-03T23:24:02.638Z,19.03
2022-10-03T23:27:00.980Z,20.77
2022-10-03T23:29:32.528Z,19.53
2022-10-03T23:32:10.159Z,21.17
2022-10-03T23:34:49.832Z,18.83
2022-10-03T23:37:42.145Z,20.50
2022-10-03T23:40:42.039Z,18.53
2022-10-03T23:43:36.249Z,19.47
2022-10-03T23:46:11.813Z,20.03
2022-10-03T23:48:50.664Z,16.77
2022-10-03T23:51:24.153Z,17.43
2022-10-03T23:53:59.386Z,16.57
2022-10-03T23:56:38.075Z,17.03
2022-10-03T23:59:15.048Z,16.33
